Time;durP1;ratioP1;P1;durP2;ratioP2;P2;SDS_P1;SDS_P2;PMS_P1;PMS_P2;Temp;Humidity;BMP_temperature;BMP_pressure;BME280_temperature;BME280_humidity;BME280_pressure;Samples;Min_cycle;Max_cycle;Signal;HPM_P1;HPM_P2
2021/07/30 00:01:37;;;;;;;2.40;1.30;;;27.10;63.60;;;;;;4167393;28;20042;-64
2021/07/30 00:03:40;;;;;;;5.30;2.42;;;27.10;63.90;;;;;;4165927;28;20049;-64
2021/07/30 00:05:59;;;;;;;7.53;2.30;;;27.00;63.60;;;;;;4166098;28;20038;-64
2021/07/30 00:08:02;;;;;;;1.88;1.48;;;27.10;63.30;;;;;;4165986;28;20412;-64
2021/07/30 00:10:04;;;;;;;2.90;1.83;;;27.10;63.80;;;;;;4165836;28;20052;-64
2021/07/30 00:12:07;;;;;;;5.03;2.45;;;27.10;63.70;;;;;;4167251;28;20042;-64
2021/07/30 00:14:09;;;;;;;3.58;2.13;;;27.00;63.40;;;;;;4167459;28;20050;-64
2021/07/30 00:16:11;;;;;;;5.05;2.35;;;27.00;63.40;;;;;;4167203;28;20042;-61
2021/07/30 00:18:13;;;;;;;2.88;2.20;;;27.00;63.50;;;;;;4167627;28;20046;-62
2021/07/30 00:20:15;;;;;;;3.92;2.20;;;27.00;63.90;;;;;;4167280;28;20045;-62
2021/07/30 00:22:17;;;;;;;2.03;1.60;;;27.00;63.70;;;;;;4167388;28;20050;-62
2021/07/30 00:24:19;;;;;;;8.10;2.70;;;27.00;64.00;;;;;;4167265;28;20041;-64
2021/07/30 00:26:21;;;;;;;4.22;3.00;;;27.00;63.20;;;;;;4167382;28;20788;-62
2021/07/30 00:28:23;;;;;;;6.45;2.30;;;27.10;62.90;;;;;;4167480;28;20049;-62
2021/07/30 00:30:25;;;;;;;2.58;2.35;;;27.10;63.40;;;;;;4167437;28;20052;-62
2021/07/30 00:32:27;;;;;;;4.15;2.17;;;27.10;63.50;;;;;;4167113;28;20057;-62
2021/07/30 00:34:30;;;;;;;5.35;2.47;;;27.00;63.50;;;;;;4167065;28;20046;-62
2021/07/30 00:36:32;;;;;;;3.03;2.30;;;27.00;63.20;;;;;;4167524;28;20050;-60
2021/07/30 00:38:34;;;;;;;6.97;3.65;;;27.00;63.10;;;;;;4168474;28;20050;-60
2021/07/30 00:40:36;;;;;;;3.58;2.15;;;27.00;63.20;;;;;;4168457;28;20052;-61
2021/07/30 00:43:00;;;;;;;2.97;2.50;;;27.00;63.40;;;;;;4168331;28;20060;-60
2021/07/30 00:45:03;;;;;;;5.18;2.28;;;27.00;63.30;;;;;;4168475;28;20053;-60
2021/07/30 00:47:05;;;;;;;3.60;2.50;;;27.00;63.20;;;;;;4168337;28;20049;-60
2021/07/30 00:49:07;;;;;;;3.47;1.98;;;27.00;63.00;;;;;;4167671;28;20050;-60
2021/07/30 00:51:09;;;;;;;4.35;2.03;;;27.00;63.10;;;;;;4168286;28;20054;-60
2021/07/30 00:53:11;;;;;;;3.75;2.15;;;27.00;63.00;;;;;;4167465;28;20053;-63
2021/07/30 00:55:14;;;;;;;4.80;2.88;;;26.90;63.00;;;;;;4182400;28;20053;-62
2021/07/30 00:57:18;;;;;;;4.82;2.70;;;27.00;62.80;;;;;;4166796;28;20060;-61
2021/07/30 00:59:22;;;;;;;4.95;1.98;;;26.90;62.40;;;;;;4166678;28;20048;-61
2021/07/30 01:01:24;;;;;;;;;;;27.00;62.90;;;;;;4167000;28;20101;-65
2021/07/30 01:03:28;;;;;;;3.95;1.88;;;27.00;62.70;;;;;;4166766;28;19921;-65
2021/07/30 01:05:31;;;;;;;8.25;2.75;;;27.00;62.70;;;;;;4166883;28;20045;-65
2021/07/30 01:07:33;;;;;;;4.68;2.58;;;27.00;62.60;;;;;;4166605;28;20049;-65
2021/07/30 01:09:36;;;;;;;7.63;2.45;;;27.00;62.80;;;;;;4166457;28;20054;-65
2021/07/30 01:11:38;;;;;;;4.47;2.22;;;27.00;62.80;;;;;;4166612;28;20049;-65
2021/07/30 01:13:41;;;;;;;5.22;3.78;;;27.00;62.70;;;;;;4166579;28;20105;-65
2021/07/30 01:15:43;;;;;;;2.90;2.17;;;27.00;62.50;;;;;;4166478;28;20054;-65
2021/07/30 01:17:45;;;;;;;5.70;2.38;;;27.00;62.80;;;;;;4167044;28;20050;-59
2021/07/30 01:19:46;;;;;;;4.75;3.22;;;26.90;62.40;;;;;;4167738;28;20077;-59
2021/07/30 01:21:50;;;;;;;3.25;2.15;;;27.00;62.00;;;;;;4167533;28;20073;-59
2021/07/30 01:23:52;;;;;;;5.03;2.72;;;27.00;62.70;;;;;;4167557;28;20068;-58
2021/07/30 01:25:54;;;;;;;4.55;2.42;;;27.00;62.20;;;;;;4167606;28;20045;-58
2021/07/30 01:27:56;;;;;;;5.32;2.38;;;27.00;62.50;;;;;;4167428;28;20046;-58
2021/07/30 01:29:58;;;;;;;7.03;3.35;;;27.00;62.50;;;;;;4167430;28;20045;-58
2021/07/30 01:32:00;;;;;;;3.55;2.30;;;27.00;61.90;;;;;;4182987;28;20109;-58
2021/07/30 01:34:02;;;;;;;3.92;2.30;;;26.90;62.50;;;;;;4167429;28;20045;-59
2021/07/30 01:36:05;;;;;;;5.35;2.45;;;27.00;62.50;;;;;;4167364;28;20049;-58
2021/07/30 01:38:07;;;;;;;3.20;2.08;;;27.00;62.50;;;;;;4166772;28;20060;-65
2021/07/30 01:40:10;;;;;;;5.00;3.03;;;27.00;62.40;;;;;;4166289;28;20074;-65
2021/07/30 01:42:11;;;;;;;3.75;1.90;;;27.00;62.30;;;;;;4166135;28;20077;-64
2021/07/30 01:44:14;;;;;;;4.63;1.98;;;27.00;62.30;;;;;;4166045;28;20050;-65
2021/07/30 01:46:16;;;;;;;6.93;2.75;;;27.00;61.80;;;;;;4166029;28;20042;-65
2021/07/30 01:48:18;;;;;;;3.00;2.03;;;26.90;61.80;;;;;;4166009;28;20050;-63
2021/07/30 01:50:20;;;;;;;3.03;2.13;;;27.00;62.20;;;;;;4165868;28;20045;-63
2021/07/30 01:52:22;;;;;;;5.10;2.53;;;27.00;62.30;;;;;;4165595;28;20051;-62
2021/07/30 01:54:24;;;;;;;4.07;2.33;;;27.00;62.10;;;;;;4165150;28;20050;-63
2021/07/30 01:56:26;;;;;;;3.65;2.22;;;27.00;62.00;;;;;;4164222;28;20056;-63
2021/07/30 01:58:28;;;;;;;2.13;1.90;;;26.90;61.90;;;;;;4164170;28;20052;-64
2021/07/30 02:00:30;;;;;;;3.95;2.20;;;26.90;62.00;;;;;;4164176;28;20042;-64
2021/07/30 02:02:33;;;;;;;2.90;2.03;;;26.90;62.10;;;;;;4166095;28;20384;-63
2021/07/30 02:04:36;;;;;;;2.20;1.92;;;26.90;62.10;;;;;;4167069;28;20406;-64
2021/07/30 02:06:38;;;;;;;3.67;2.05;;;26.90;62.00;;;;;;4167083;28;20056;-65
2021/07/30 02:08:40;;;;;;;4.15;1.80;;;26.90;62.10;;;;;;4167114;28;20049;-64
2021/07/30 02:10:42;;;;;;;4.53;2.30;;;26.90;61.90;;;;;;4167123;28;20046;-64
2021/07/30 02:15:05;;;;;;;11.05;2.78;;;26.90;61.50;;;;;;4167000;28;20080;-61
2021/07/30 02:17:07;;;;;;;3.08;1.80;;;26.90;61.60;;;;;;4167036;28;20045;-61
2021/07/30 02:19:09;;;;;;;5.65;2.45;;;27.00;62.10;;;;;;4166935;28;20046;-61
2021/07/30 02:21:11;;;;;;;2.75;2.00;;;26.90;61.60;;;;;;4166906;28;20049;-61
2021/07/30 02:23:13;;;;;;;3.80;2.30;;;27.00;61.60;;;;;;4166810;28;20052;-61
2021/07/30 02:25:15;;;;;;;3.13;2.70;;;26.90;61.30;;;;;;4166891;28;20485;-61
2021/07/30 02:27:17;;;;;;;2.95;2.20;;;26.90;61.30;;;;;;4166852;28;20053;-61
2021/07/30 02:29:20;;;;;;;4.28;2.15;;;26.90;61.40;;;;;;4166782;28;20050;-61
2021/07/30 02:31:23;;;;;;;2.92;2.25;;;26.90;61.50;;;;;;4166746;28;20081;-61
2021/07/30 02:33:26;;;;;;;6.47;2.67;;;26.90;61.60;;;;;;4166782;28;20060;-60
2021/07/30 02:35:28;;;;;;;2.20;1.65;;;26.90;61.20;;;;;;4166590;28;20054;-56
2021/07/30 02:37:30;;;;;;;3.05;2.10;;;26.90;61.50;;;;;;4166525;28;20050;-57
2021/07/30 02:39:32;;;;;;;4.25;2.40;;;26.90;61.30;;;;;;4166647;28;20076;-56
2021/07/30 02:41:34;;;;;;;4.13;2.58;;;26.90;61.40;;;;;;4166619;28;20046;-58
2021/07/30 02:43:36;;;;;;;6.03;2.53;;;26.90;61.20;;;;;;4165297;28;20085;-63
2021/07/30 02:45:38;;;;;;;5.90;2.83;;;26.90;61.40;;;;;;4181053;28;20084;-63
2021/07/30 02:47:40;;;;;;;5.13;2.42;;;26.90;61.00;;;;;;4165519;28;20080;-63
2021/07/30 02:49:41;;;;;;;4.20;3.17;;;26.90;61.20;;;;;;4165210;28;20054;-62
2021/07/30 02:51:43;;;;;;;2.83;2.25;;;26.90;61.00;;;;;;4165146;28;20251;-62
2021/07/30 02:53:45;;;;;;;5.43;2.15;;;26.90;61.20;;;;;;4165027;28;20054;-63
2021/07/30 02:55:47;;;;;;;4.15;2.88;;;26.90;61.10;;;;;;4164792;28;20050;-62
2021/07/30 02:57:49;;;;;;;3.05;2.55;;;26.90;61.30;;;;;;4165262;28;20046;-63
2021/07/30 02:59:51;;;;;;;3.70;2.50;;;26.90;61.30;;;;;;4165012;28;20045;-63
2021/07/30 03:01:53;;;;;;;2.42;2.22;;;26.90;61.00;;;;;;4164891;28;20053;-63
2021/07/30 03:03:55;;;;;;;2.88;2.28;;;26.90;61.10;;;;;;4165686;28;20042;-57
2021/07/30 03:05:58;;;;;;;2.53;2.33;;;26.90;61.10;;;;;;4166184;28;20046;-58
2021/07/30 03:08:00;;;;;;;3.05;2.20;;;26.90;61.10;;;;;;4166182;28;20050;-57
2021/07/30 03:10:03;;;;;;;2.60;2.33;;;26.90;61.10;;;;;;4166234;28;20049;-58
2021/07/30 03:12:06;;;;;;;3.85;2.45;;;26.90;61.10;;;;;;4167830;28;20113;-60
2021/07/30 03:14:08;;;;;;;7.82;2.90;;;26.90;61.10;;;;;;4169177;28;20046;-60
2021/07/30 03:16:13;;;;;;;14.55;4.13;;;26.90;60.90;;;;;;4169055;28;20050;-61
2021/07/30 03:18:15;;;;;;;6.45;2.38;;;26.90;61.90;;;;;;4168872;28;20046;-60
2021/07/30 03:20:17;;;;;;;5.70;2.97;;;26.90;61.20;;;;;;4168733;28;20049;-60
2021/07/30 03:22:19;;;;;;;9.27;2.67;;;26.90;61.10;;;;;;4169497;28;20080;-58
2021/07/30 03:24:21;;;;;;;3.30;2.30;;;26.90;61.30;;;;;;4169462;28;20053;-58
2021/07/30 03:26:23;;;;;;;12.40;2.60;;;26.90;61.10;;;;;;4169388;28;20045;-58
2021/07/30 03:28:25;;;;;;;6.35;3.38;;;26.90;61.00;;;;;;4169304;28;20049;-59
2021/07/30 03:30:27;;;;;;;6.22;2.45;;;26.90;61.40;;;;;;4169288;28;20054;-59
2021/07/30 03:32:29;;;;;;;7.75;2.83;;;26.90;61.10;;;;;;4169431;28;20050;-59
2021/07/30 03:34:33;;;;;;;5.10;3.05;;;26.90;61.10;;;;;;4169235;28;20092;-59
2021/07/30 03:36:35;;;;;;;3.70;2.83;;;26.90;60.90;;;;;;4169101;28;20109;-60
2021/07/30 03:38:37;;;;;;;7.15;2.95;;;26.90;60.70;;;;;;4169110;28;20046;-59
2021/07/30 03:40:39;;;;;;;5.53;2.67;;;26.90;60.80;;;;;;4168293;28;20046;-66
2021/07/30 03:42:41;;;;;;;12.95;3.60;;;26.90;61.00;;;;;;4168142;28;20072;-64
2021/07/30 03:44:43;;;;;;;6.75;3.63;;;26.90;61.00;;;;;;4168762;28;20493;-64
2021/07/30 03:46:45;;;;;;;7.10;2.85;;;26.90;61.10;;;;;;4168600;28;20041;-64
2021/07/30 03:48:47;;;;;;;8.32;3.78;;;26.90;61.10;;;;;;4168664;28;20058;-63
2021/07/30 03:50:49;;;;;;;6.07;3.60;;;26.90;61.00;;;;;;4167715;28;20060;-64
2021/07/30 03:52:51;;;;;;;9.05;2.90;;;26.90;61.10;;;;;;4168498;28;20064;-63
2021/07/30 03:54:53;;;;;;;7.25;2.70;;;26.90;61.10;;;;;;4168622;28;20049;-63
2021/07/30 03:56:55;;;;;;;5.60;3.10;;;26.90;61.10;;;;;;4167832;28;20053;-65
2021/07/30 03:58:57;;;;;;;6.68;3.33;;;26.90;61.20;;;;;;4167584;28;20046;-65
2021/07/30 04:00:59;;;;;;;8.20;2.78;;;26.90;61.20;;;;;;4168112;28;20056;-65
2021/07/30 04:03:01;;;;;;;5.28;2.90;;;26.90;61.00;;;;;;4168879;28;20042;-65
2021/07/30 04:05:04;;;;;;;6.53;3.40;;;26.90;61.00;;;;;;4168833;28;20104;-65
2021/07/30 04:07:06;;;;;;;4.30;2.25;;;26.90;61.10;;;;;;4168616;28;20056;-66
2021/07/30 04:09:12;;;;;;;4.28;2.53;;;26.90;61.20;;;;;;4168526;28;20060;-66
2021/07/30 04:11:14;;;;;;;3.05;2.58;;;26.90;61.20;;;;;;4168585;28;20064;-66
2021/07/30 04:13:16;;;;;;;4.15;2.90;;;26.90;61.00;;;;;;4168695;28;20060;-64
2021/07/30 04:15:18;;;;;;;6.72;2.92;;;26.90;60.80;;;;;;4168879;28;20046;-64
2021/07/30 04:17:20;;;;;;;4.68;3.03;;;26.90;61.00;;;;;;4168667;28;20057;-63
2021/07/30 04:19:22;;;;;;;6.28;2.78;;;26.90;61.00;;;;;;4168802;28;20077;-61
2021/07/30 04:21:24;;;;;;;8.63;3.70;;;26.90;60.90;;;;;;4168797;28;20054;-63
2021/07/30 04:23:26;;;;;;;3.08;2.25;;;26.80;60.90;;;;;;4167405;28;20046;-63
2021/07/30 04:25:28;;;;;;;7.88;3.30;;;26.80;61.00;;;;;;4168648;28;20109;-62
2021/07/30 04:27:30;;;;;;;8.18;2.78;;;26.90;61.00;;;;;;4168680;28;20064;-65
2021/07/30 04:29:40;;;;;;;6.25;2.85;;;26.80;60.90;;;;;;4168635;28;20053;-65
2021/07/30 04:31:42;;;;;;;4.45;2.63;;;26.90;60.70;;;;;;4168575;28;20064;-65
2021/07/30 04:33:44;;;;;;;4.28;2.95;;;26.90;60.90;;;;;;4168473;28;20050;-65
2021/07/30 04:35:46;;;;;;;3.45;2.22;;;26.90;60.90;;;;;;4168541;28;20056;-65
2021/07/30 04:37:48;;;;;;;3.78;2.80;;;26.80;61.00;;;;;;4168391;28;20053;-65
2021/07/30 04:39:50;;;;;;;4.18;3.05;;;26.90;60.90;;;;;;4168440;28;20046;-65
2021/07/30 04:41:52;;;;;;;3.30;2.65;;;26.90;60.40;;;;;;4168105;28;20042;-65
2021/07/30 04:43:54;;;;;;;4.85;2.50;;;26.90;60.80;;;;;;4168430;28;20050;-65
2021/07/30 04:45:56;;;;;;;5.80;2.90;;;26.90;61.00;;;;;;4168472;28;20049;-65
2021/07/30 04:47:58;;;;;;;3.05;2.10;;;26.80;60.80;;;;;;4168355;28;20057;-65
2021/07/30 04:50:00;;;;;;;5.55;2.83;;;26.90;60.90;;;;;;4168325;28;20045;-65
2021/07/30 04:52:03;;;;;;;4.03;2.33;;;26.90;60.60;;;;;;4168298;28;20050;-65
2021/07/30 04:54:05;;;;;;;5.22;2.50;;;26.90;60.80;;;;;;4168252;28;20053;-65
2021/07/30 04:56:07;;;;;;;2.38;2.17;;;26.90;60.80;;;;;;4168241;28;20050;-65
2021/07/30 04:58:09;;;;;;;5.35;2.53;;;26.90;60.80;;;;;;4167149;28;20050;-64
2021/07/30 05:00:11;;;;;;;2.83;2.45;;;26.90;60.80;;;;;;4166652;28;20046;-65
2021/07/30 05:02:13;;;;;;;2.97;2.42;;;26.90;60.70;;;;;;4168073;28;20046;-66
2021/07/30 05:04:17;;;;;;;3.03;2.33;;;26.90;60.80;;;;;;4168045;28;20057;-65
2021/07/30 05:06:23;;;;;;;5.15;1.83;;;26.90;60.70;;;;;;4167963;28;20046;-65
2021/07/30 05:08:25;;;;;;;6.65;2.50;;;26.90;60.80;;;;;;4167987;28;20418;-65
2021/07/30 05:10:27;;;;;;;3.75;2.20;;;26.90;60.70;;;;;;4167961;28;20110;-65
2021/07/30 05:12:31;;;;;;;11.65;4.57;;;26.90;60.80;;;;;;4167788;28;20046;-61
2021/07/30 05:14:33;;;;;;;15.70;6.70;;;26.80;59.70;;;;;;4167657;28;20053;-62
2021/07/30 05:16:36;;;;;;;10.68;5.13;;;26.50;59.30;;;;;;4167499;28;20084;-62
2021/07/30 05:18:38;;;;;;;30.30;8.32;;;26.40;60.50;;;;;;4166692;28;20100;-62
2021/07/30 05:20:41;;;;;;;17.27;7.82;;;26.30;58.80;;;;;;4165997;28;20105;-62
2021/07/30 05:22:43;;;;;;;21.20;8.13;;;26.10;59.10;;;;;;4166618;28;20046;-61
2021/07/30 05:24:45;;;;;;;16.40;7.78;;;26.00;59.50;;;;;;4167726;28;20042;-61
2021/07/30 05:26:47;;;;;;;20.98;7.88;;;26.00;59.80;;;;;;4167645;28;20050;-61
2021/07/30 05:28:48;;;;;;;18.30;8.00;;;25.90;59.70;;;;;;4167792;28;20084;-61
2021/07/30 05:30:51;;;;;;;12.43;7.20;;;25.90;59.10;;;;;;4167666;28;20052;-61
2021/07/30 05:32:53;;;;;;;17.83;8.20;;;25.90;59.70;;;;;;4167625;28;20076;-60
2021/07/30 05:34:55;;;;;;;19.25;8.88;;;25.90;59.40;;;;;;4165741;28;20041;-61
2021/07/30 05:36:57;;;;;;;13.88;8.60;;;25.90;59.10;;;;;;4166114;28;20054;-60
2021/07/30 05:38:59;;;;;;;13.38;6.07;;;25.90;59.60;;;;;;4166078;28;20042;-60
2021/07/30 05:41:01;;;;;;;12.68;7.75;;;26.10;60.00;;;;;;4166260;28;20042;-63
2021/07/30 05:43:03;;;;;;;14.30;8.60;;;26.20;59.60;;;;;;4166155;28;20061;-63
2021/07/30 05:45:06;;;;;;;13.00;6.72;;;26.30;59.10;;;;;;4166284;28;20056;-65
2021/07/30 05:47:08;;;;;;;14.07;6.85;;;26.30;59.10;;;;;;4166394;28;20060;-64
2021/07/30 05:49:10;;;;;;;9.75;5.57;;;26.30;59.10;;;;;;4166141;28;20429;-64
2021/07/30 05:51:13;;;;;;;16.65;5.20;;;26.20;59.30;;;;;;4166032;28;20053;-64
2021/07/30 05:53:15;;;;;;;10.30;5.00;;;26.20;59.50;;;;;;4166769;28;20050;-64
2021/07/30 05:55:17;;;;;;;8.73;3.97;;;26.20;59.50;;;;;;4166805;28;20113;-64
2021/07/30 05:57:19;;;;;;;8.25;5.43;;;26.30;59.50;;;;;;4182754;28;20056;-64
2021/07/30 05:59:22;;;;;;;18.65;8.52;;;26.40;59.20;;;;;;4181859;28;20049;-63
2021/07/30 06:01:24;;;;;;;19.23;8.57;;;26.40;59.00;;;;;;4181401;28;20077;-65
2021/07/30 06:03:27;;;;;;;22.63;6.28;;;26.40;59.50;;;;;;4165263;28;20060;-65
2021/07/30 06:05:29;;;;;;;21.10;8.55;;;26.40;59.60;;;;;;4165816;28;20284;-64
2021/07/30 06:07:34;;;;;;;32.38;8.45;;;26.40;59.20;;;;;;4164782;28;20537;-64
2021/07/30 06:09:36;;;;;;;21.75;9.60;;;26.40;58.40;;;;;;4164522;28;20517;-64
2021/07/30 06:11:38;;;;;;;22.92;9.65;;;26.40;58.30;;;;;;4166049;28;20046;-64
2021/07/30 06:13:41;;;;;;;16.08;8.60;;;26.30;58.00;;;;;;4182465;28;20060;-65
2021/07/30 06:15:43;;;;;;;20.05;8.50;;;26.30;58.30;;;;;;4167003;28;20054;-65
2021/07/30 06:17:45;;;;;;;18.08;8.85;;;26.20;58.30;;;;;;4166917;28;20481;-65
2021/07/30 06:19:47;;;;;;;16.50;9.52;;;26.20;58.10;;;;;;4182414;28;20053;-65
2021/07/30 06:21:49;;;;;;;17.38;9.55;;;26.20;58.70;;;;;;4166906;28;20048;-65
2021/07/30 06:23:51;;;;;;;14.20;8.38;;;26.20;58.20;;;;;;4166774;28;20052;-65
2021/07/30 06:25:53;;;;;;;19.92;9.60;;;26.20;58.30;;;;;;4167005;28;20046;-65
2021/07/30 06:27:55;;;;;;;18.05;9.80;;;26.30;58.60;;;;;;4166886;28;20056;-65
2021/07/30 06:29:57;;;;;;;19.23;9.30;;;26.30;58.20;;;;;;4166788;28;20099;-65
2021/07/30 06:31:59;;;;;;;16.20;9.15;;;26.30;58.40;;;;;;4165949;28;20106;-65
2021/07/30 06:34:01;;;;;;;17.58;9.10;;;26.30;58.30;;;;;;4166182;28;20045;-66
2021/07/30 06:36:04;;;;;;;19.45;9.10;;;26.30;58.60;;;;;;4165229;28;20052;-66
2021/07/30 06:38:07;;;;;;;19.27;9.63;;;26.30;58.40;;;;;;4165274;28;20056;-67
2021/07/30 06:40:10;;;;;;;19.52;9.73;;;26.40;58.10;;;;;;4165454;28;20060;-66
2021/07/30 06:42:12;;;;;;;24.73;10.07;;;26.40;58.30;;;;;;4165258;28;20050;-66
2021/07/30 06:44:14;;;;;;;22.23;10.52;;;26.40;58.40;;;;;;4165161;28;20064;-67
2021/07/30 06:46:16;;;;;;;21.65;11.50;;;26.30;58.40;;;;;;4164698;28;20080;-66
2021/07/30 06:48:19;;;;;;;16.85;9.45;;;26.30;58.50;;;;;;4165129;28;20050;-66
2021/07/30 06:50:21;;;;;;;17.20;10.10;;;26.40;58.60;;;;;;4165190;28;20054;-66
2021/07/30 06:52:23;;;;;;;15.70;8.60;;;26.40;58.40;;;;;;4165411;28;20105;-66
2021/07/30 06:54:27;;;;;;;16.92;9.98;;;26.40;58.80;;;;;;4165221;28;20049;-67
2021/07/30 06:56:29;;;;;;;15.32;9.82;;;26.40;59.00;;;;;;4165183;28;20049;-67
2021/07/30 06:58:31;;;;;;;15.57;9.40;;;26.50;58.60;;;;;;4165032;28;20056;-66
2021/07/30 07:00:33;;;;;;;20.95;9.50;;;26.50;58.70;;;;;;4164947;28;20060;-66
2021/07/30 07:02:35;;;;;;;19.33;9.82;;;26.40;58.60;;;;;;4165098;28;20072;-66
2021/07/30 07:04:38;;;;;;;17.83;9.65;;;26.50;58.60;;;;;;4166021;28;20053;-64
2021/07/30 07:06:40;;;;;;;14.60;8.90;;;26.40;58.30;;;;;;4165732;28;20071;-65
2021/07/30 07:08:45;;;;;;;19.85;9.52;;;26.50;58.10;;;;;;4164977;28;20089;-64
2021/07/30 07:10:48;;;;;;;18.70;10.05;;;26.50;58.40;;;;;;4164899;28;20096;-64
2021/07/30 07:12:49;;;;;;;13.07;8.55;;;26.50;58.40;;;;;;4164903;28;20058;-65
2021/07/30 07:14:51;;;;;;;15.48;9.32;;;26.60;58.30;;;;;;4165026;28;20077;-65
2021/07/30 07:16:53;;;;;;;12.85;9.55;;;26.60;58.80;;;;;;4165067;28;20064;-66
2021/07/30 07:18:56;;;;;;;15.20;8.27;;;26.50;58.60;;;;;;4165566;28;20053;-61
2021/07/30 07:20:58;;;;;;;17.52;9.45;;;26.50;58.50;;;;;;4164936;28;20053;-65
2021/07/30 07:23:00;;;;;;;15.63;8.68;;;26.60;58.20;;;;;;4165299;28;20042;-61
2021/07/30 07:25:02;;;;;;;11.55;8.98;;;26.50;58.30;;;;;;4166291;28;20061;-61
2021/07/30 07:27:05;;;;;;;18.17;9.02;;;26.50;58.90;;;;;;4166253;28;20106;-61
2021/07/30 07:29:07;;;;;;;16.80;9.77;;;26.60;58.60;;;;;;4166264;28;20049;-61
2021/07/30 07:31:10;;;;;;;12.32;8.50;;;26.60;58.90;;;;;;4165392;28;20046;-66
2021/07/30 07:33:11;;;;;;;12.13;7.82;;;26.60;58.90;;;;;;4164821;28;20474;-66
2021/07/30 07:35:14;;;;;;;16.80;9.20;;;26.60;58.90;;;;;;4166249;28;20064;-61
2021/07/30 07:37:16;;;;;;;14.27;8.40;;;26.60;58.90;;;;;;4181722;28;20053;-64
2021/07/30 07:39:17;;;;;;;11.63;8.20;;;26.60;59.00;;;;;;4166159;28;20121;-61
2021/07/30 07:41:19;;;;;;;14.85;8.90;;;26.60;59.10;;;;;;4166184;28;20053;-61
2021/07/30 07:43:22;;;;;;;15.15;8.82;;;26.60;59.20;;;;;;4166011;28;20493;-61
2021/07/30 07:45:24;;;;;;;13.50;9.50;;;26.60;59.10;;;;;;4166165;28;20056;-61
2021/07/30 07:47:31;;;;;;;16.80;8.52;;;26.60;59.20;;;;;;4166079;28;20045;-61
2021/07/30 07:49:33;;;;;;;15.05;9.05;;;26.60;59.10;;;;;;4166147;28;20050;-61
2021/07/30 07:51:36;;;;;;;14.63;8.82;;;26.60;59.20;;;;;;4166132;28;20057;-61
2021/07/30 07:53:38;;;;;;;11.50;8.52;;;26.60;59.30;;;;;;4166017;28;20077;-61
2021/07/30 07:55:41;;;;;;;12.98;8.90;;;26.60;59.20;;;;;;4166047;28;20049;-61
2021/07/30 07:57:43;;;;;;;14.18;8.98;;;26.60;59.20;;;;;;4167277;28;20133;-61
2021/07/30 07:59:45;;;;;;;12.80;9.50;;;26.60;59.30;;;;;;4168990;28;20046;-61
2021/07/30 08:01:47;;;;;;;12.07;7.80;;;26.60;59.40;;;;;;4169079;28;20046;-62
2021/07/30 08:03:50;;;;;;;12.60;8.40;;;26.60;59.40;;;;;;4169074;28;20050;-61
2021/07/30 08:05:52;;;;;;;10.18;7.70;;;26.60;59.30;;;;;;4169096;28;20050;-61
2021/07/30 08:07:54;;;;;;;13.45;8.10;;;26.60;59.50;;;;;;4168966;28;20106;-61
2021/07/30 08:09:56;;;;;;;12.60;7.72;;;26.60;59.50;;;;;;4168925;28;20133;-61
2021/07/30 08:11:59;;;;;;;12.52;8.05;;;26.60;59.50;;;;;;4168896;28;20113;-62
2021/07/30 08:14:01;;;;;;;11.85;8.00;;;26.60;59.40;;;;;;4168836;28;20109;-61
2021/07/30 08:16:04;;;;;;;10.00;7.68;;;26.60;59.30;;;;;;4168838;28;20056;-61
2021/07/30 08:18:06;;;;;;;11.27;8.32;;;26.60;59.40;;;;;;4168948;28;20058;-61
2021/07/30 08:20:09;;;;;;;11.13;8.43;;;26.60;59.50;;;;;;4168725;28;20050;-60
2021/07/30 08:22:11;;;;;;;9.35;7.68;;;26.60;59.50;;;;;;4168748;28;20446;-61
2021/07/30 08:24:13;;;;;;;15.18;8.18;;;26.60;59.60;;;;;;4168769;28;20117;-65
2021/07/30 08:26:15;;;;;;;11.73;7.68;;;26.60;59.60;;;;;;4167698;28;20060;-66
2021/07/30 08:28:17;;;;;;;11.52;8.43;;;26.60;59.60;;;;;;4167514;28;20050;-67
2021/07/30 08:30:19;;;;;;;13.80;9.25;;;26.60;59.60;;;;;;4167514;28;20056;-61
2021/07/30 08:32:21;;;;;;;15.30;8.85;;;26.60;59.60;;;;;;4168623;28;20055;-62
2021/07/30 08:34:24;;;;;;;10.98;7.78;;;26.50;59.70;;;;;;4168616;28;20050;-65
2021/07/30 08:36:26;;;;;;;14.98;8.02;;;26.60;59.60;;;;;;4167721;28;20056;-61
2021/07/30 08:38:28;;;;;;;10.82;7.97;;;26.60;59.60;;;;;;4168426;28;20064;-64
2021/07/30 08:40:33;;;;;;;14.15;8.27;;;26.50;59.60;;;;;;4168507;28;20046;-65
2021/07/30 08:42:37;;;;;;;13.35;7.90;;;26.60;59.60;;;;;;4183035;28;20067;-66
2021/07/30 08:44:39;;;;;;;12.15;8.05;;;26.60;59.70;;;;;;4167114;28;20042;-66
2021/07/30 08:46:43;;;;;;;12.40;8.43;;;26.60;59.70;;;;;;4166996;28;20052;-65
2021/07/30 08:48:45;;;;;;;10.55;7.15;;;26.60;59.60;;;;;;4167029;28;20056;-64
2021/07/30 08:50:48;;;;;;;15.85;7.97;;;26.60;59.70;;;;;;4166963;28;20065;-64
2021/07/30 08:52:56;;;;;;;10.80;8.32;;;26.60;59.60;;;;;;4166877;28;20042;-64
2021/07/30 08:54:58;;;;;;;13.10;8.32;;;26.60;59.60;;;;;;4166907;28;20052;-64
2021/07/30 08:57:00;;;;;;;11.00;7.40;;;26.60;59.70;;;;;;4167094;28;20057;-64
2021/07/30 08:59:03;;;;;;;11.55;7.10;;;26.60;59.60;;;;;;4166926;28;20060;-64
2021/07/30 09:01:05;;;;;;;11.85;7.90;;;26.60;59.60;;;;;;4166802;28;20132;-64
2021/07/30 09:03:07;;;;;;;13.45;8.02;;;26.60;59.60;;;;;;4166696;28;20042;-64
2021/07/30 09:05:29;;;;;;;10.57;7.28;;;26.60;59.70;;;;;;4166785;28;20487;-64
2021/07/30 09:07:40;;;;;;;12.07;7.28;;;26.60;59.60;;;;;;4166793;28;20114;-64
2021/07/30 09:09:53;;;;;;;15.77;8.25;;;26.60;59.60;;;;;;4166120;28;20061;-64
2021/07/30 09:11:57;;;;;;;15.85;7.97;;;26.60;59.50;;;;;;4166573;28;20046;-64
2021/07/30 09:14:01;;;;;;;9.18;7.50;;;26.60;59.50;;;;;;4166553;28;20056;-64
2021/07/30 09:16:09;;;;;;;11.63;7.68;;;26.60;59.60;;;;;;4166517;28;20085;-64
2021/07/30 09:18:38;;;;;;;10.90;7.05;;;26.60;59.50;;;;;;4166502;28;20050;-64
2021/07/30 09:20:39;;;;;;;10.23;7.93;;;26.60;59.40;;;;;;4166428;28;20080;-64
2021/07/30 09:22:50;;;;;;;11.57;7.13;;;26.60;59.40;;;;;;4166170;28;20041;-65
2021/07/30 09:24:59;;;;;;;14.63;7.05;;;26.60;59.30;;;;;;4167321;28;20046;-64
2021/07/30 09:27:02;;;;;;;13.95;6.25;;;26.60;59.20;;;;;;4156195;28;20471;-64
2021/07/30 09:29:13;;;;;;;6.43;4.93;;;26.60;59.10;;;;;;4150253;28;20050;-64
2021/07/30 09:31:15;;;;;;;4.45;4.03;;;26.50;59.30;;;;;;4148939;28;20046;-67
2021/07/30 09:33:25;;;;;;;4.35;3.58;;;26.50;59.70;;;;;;4150434;28;20058;-65
2021/07/30 09:35:27;;;;;;;4.53;2.85;;;26.60;60.30;;;;;;4150554;28;20046;-68
2021/07/30 09:37:29;;;;;;;5.05;2.65;;;26.60;60.50;;;;;;4148981;28;20050;-62
2021/07/30 09:39:37;;;;;;;5.97;2.83;;;26.60;60.30;;;;;;4150380;28;20074;-63
2021/07/30 09:41:39;;;;;;;3.15;2.17;;;26.60;60.50;;;;;;4150696;28;20047;-61
2021/07/30 09:43:44;;;;;;;3.50;1.88;;;26.70;60.50;;;;;;4150766;28;20086;-61
2021/07/30 09:45:46;;;;;;;6.30;2.30;;;26.70;60.50;;;;;;4150746;28;20106;-64
2021/07/30 09:47:53;;;;;;;4.80;2.10;;;26.70;60.60;;;;;;4149495;28;20102;-67
2021/07/30 09:49:58;;;;;;;7.88;2.53;;;26.70;60.30;;;;;;4149651;28;20050;-67
2021/07/30 09:52:01;;;;;;;2.65;1.77;;;26.80;60.30;;;;;;4148666;28;20046;-67
2021/07/30 09:54:03;;;;;;;3.50;2.30;;;26.80;60.50;;;;;;4149214;28;20046;-68
2021/07/30 09:56:05;;;;;;;2.63;1.83;;;26.90;60.30;;;;;;4150722;28;20050;-65
2021/07/30 09:58:08;;;;;;;2.13;1.33;;;26.90;60.30;;;;;;4150764;28;20050;-64
2021/07/30 10:00:13;;;;;;;3.42;1.50;;;26.90;60.60;;;;;;4150793;28;20471;-65
2021/07/30 10:02:20;;;;;;;3.45;1.98;;;26.90;60.70;;;;;;4150204;28;20050;-66
2021/07/30 10:04:25;;;;;;;1.33;1.23;;;26.90;60.60;;;;;;4150750;28;20076;-66
2021/07/30 10:06:27;;;;;;;6.13;2.00;;;26.90;60.50;;;;;;4148203;28;20101;-66
2021/07/30 10:08:30;;;;;;;10.52;3.13;;;27.00;60.30;;;;;;4150143;28;20052;-65
2021/07/30 10:10:33;;;;;;;3.72;2.03;;;27.00;60.00;;;;;;4150827;28;20050;-65
2021/07/30 10:12:38;;;;;;;12.15;3.33;;;27.00;60.20;;;;;;4150538;28;20050;-64
2021/07/30 10:14:41;;;;;;;8.48;3.40;;;26.90;60.10;;;;;;4149512;28;20046;-67
2021/07/30 10:17:01;;;;;;;6.47;3.60;;;26.90;60.00;;;;;;4148664;28;20073;-67
2021/07/30 10:19:05;;;;;;;14.77;5.32;;;26.90;59.90;;;;;;4149151;28;20050;-66
2021/07/30 10:21:08;;;;;;;12.35;5.93;;;26.90;59.80;;;;;;4148926;28;20043;-64
2021/07/30 10:23:14;;;;;;;14.05;5.22;;;26.90;59.80;;;;;;4150263;28;20046;-61
2021/07/30 10:25:28;;;;;;;11.10;5.85;;;26.90;59.20;;;;;;4150611;28;20061;-61
2021/07/30 10:27:31;;;;;;;11.68;5.45;;;26.90;59.40;;;;;;4150581;28;20046;-61
2021/07/30 10:30:09;;;;;;;82.10;22.15;;;26.90;59.60;;;;;;4150062;28;20054;-64
2021/07/30 10:32:11;;;;;;;85.75;24.17;;;26.90;60.20;;;;;;4149525;28;20088;-69
2021/07/30 10:34:15;;;;;;;110.72;29.40;;;26.90;60.60;;;;;;4149091;28;20058;-67
2021/07/30 10:36:30;;;;;;;51.28;16.27;;;26.90;60.70;;;;;;4149545;28;20086;-64
2021/07/30 10:38:34;;;;;;;76.45;22.45;;;26.90;60.30;;;;;;4148094;28;20054;-70
2021/07/30 10:40:39;;;;;;;73.18;21.90;;;26.90;60.40;;;;;;4149246;28;20051;-69